createdAt,value
2018-12-25T00:00:37.536Z,4.20
2018-12-25T00:01:23.575Z,4.20
2018-12-25T00:02:09.683Z,4.20
2018-12-25T00:02:56.532Z,4.20
2018-12-25T00:03:42.834Z,4.20
2018-12-25T00:04:29.491Z,4.20
2018-12-25T00:05:15.818Z,4.20
2018-12-25T00:06:01.685Z,4.20
2018-12-25T00:06:47.836Z,4.20
2018-12-25T00:07:33.835Z,4.20
2018-12-25T00:08:20.100Z,4.20
2018-12-25T00:09:06.768Z,4.20
2018-12-25T00:09:53.038Z,4.20
2018-12-25T00:10:38.847Z,4.20
2018-12-25T00:11:24.895Z,4.20
2018-12-25T00:12:11.118Z,4.20
2018-12-25T00:12:57.244Z,4.20
2018-12-25T00:13:43.459Z,4.20
2018-12-25T00:14:29.384Z,4.10
2018-12-25T00:15:15.383Z,4.10
2018-12-25T00:16:01.904Z,4.10
2018-12-25T00:16:47.864Z,4.10
2018-12-25T00:17:34.011Z,4.10
2018-12-25T00:18:20.598Z,4.10
2018-12-25T00:19:06.897Z,4.10
2018-12-25T00:19:53.494Z,4.10
2018-12-25T00:20:39.804Z,4.20
2018-12-25T00:21:26.159Z,4.20
2018-12-25T00:22:12.262Z,4.20
2018-12-25T00:22:58.264Z,4.20
2018-12-25T00:23:45.137Z,4.20
2018-12-25T00:24:31.850Z,4.10
2018-12-25T00:25:17.861Z,4.20
2018-12-25T00:26:04.198Z,4.20
2018-12-25T00:26:50.475Z,4.10
2018-12-25T00:27:37.020Z,4.10
2018-12-25T00:28:23.379Z,4.10
2018-12-25T00:29:09.348Z,4.10
2018-12-25T00:29:55.271Z,4.10
2018-12-25T00:30:42.211Z,4.10
2018-12-25T00:31:28.086Z,4.10
2018-12-25T00:32:13.940Z,4.10
2018-12-25T00:32:59.797Z,4.10
2018-12-25T00:33:45.693Z,4.10
2018-12-25T00:34:31.636Z,4.10
2018-12-25T00:35:17.591Z,4.10
2018-12-25T00:36:03.666Z,4.10
2018-12-25T00:36:50.154Z,4.10
2018-12-25T00:37:36.535Z,4.10
2018-12-25T00:38:22.679Z,4.10
2018-12-25T00:39:08.987Z,4.10
2018-12-25T00:39:55.290Z,4.10
2018-12-25T00:40:41.401Z,4.10
2018-12-25T00:41:27.650Z,4.10
2018-12-25T00:42:13.592Z,4.10
2018-12-25T00:42:59.985Z,4.10
2018-12-25T00:43:46.465Z,4.10
2018-12-25T00:44:32.911Z,4.10
2018-12-25T00:45:19.149Z,4.10
2018-12-25T00:46:05.051Z,4.10
2018-12-25T00:46:50.908Z,4.10
2018-12-25T00:47:37.321Z,4.10
2018-12-25T00:48:24.274Z,4.10
2018-12-25T00:49:14.722Z,4.10
2018-12-25T00:49:58.992Z,4.10
2018-12-25T00:50:44.931Z,4.10
2018-12-25T00:51:31.477Z,4.00
2018-12-25T00:52:17.540Z,4.10
2018-12-25T00:53:03.527Z,4.10
2018-12-25T00:53:49.576Z,4.10
2018-12-25T00:54:35.856Z,4.10
2018-12-25T00:55:21.835Z,4.10
2018-12-25T00:56:07.851Z,4.10
2018-12-25T00:56:54.322Z,4.10
2018-12-25T00:57:40.740Z,4.10
2018-12-25T00:58:26.759Z,4.10
2018-12-25T00:59:12.919Z,4.10
2018-12-25T00:59:58.960Z,4.10
2018-12-25T01:00:44.991Z,4.10
2018-12-25T01:01:30.856Z,4.10
2018-12-25T01:02:16.792Z,4.00
2018-12-25T01:03:02.701Z,4.00
2018-12-25T01:03:48.675Z,4.00
2018-12-25T01:04:35.734Z,4.10
2018-12-25T01:05:21.984Z,4.10
2018-12-25T01:06:07.770Z,4.10
2018-12-25T01:06:53.667Z,4.10
2018-12-25T01:07:40.989Z,4.10
2018-12-25T01:08:27.287Z,4.10
2018-12-25T01:09:13.055Z,4.10
2018-12-25T01:09:59.011Z,4.10
2018-12-25T01:10:44.909Z,4.10
2018-12-25T01:11:30.808Z,4.10
2018-12-25T01:12:16.829Z,4.10
2018-12-25T01:13:02.720Z,4.10
2018-12-25T01:13:49.176Z,4.10
2018-12-25T01:14:35.376Z,4.10
2018-12-25T01:15:21.451Z,4.10
2018-12-25T01:16:07.569Z,4.10
2018-12-25T01:16:53.736Z,4.10
2018-12-25T01:17:39.769Z,4.10
2018-12-25T01:18:25.674Z,4.10
2018-12-25T01:19:11.426Z,4.10
2018-12-25T01:19:57.256Z,4.10
2018-12-25T01:20:43.173Z,4.10
2018-12-25T01:21:29.046Z,4.10
2018-12-25T01:22:14.976Z,4.20
2018-12-25T01:23:01.168Z,4.20
2018-12-25T01:23:47.097Z,4.20
2018-12-25T01:24:33.526Z,4.20
2018-12-25T01:25:19.961Z,4.20
2018-12-25T01:26:05.799Z,4.20
2018-12-25T01:26:51.728Z,4.10
2018-12-25T01:27:37.690Z,4.10
2018-12-25T01:28:23.716Z,4.10
2018-12-25T01:29:09.705Z,4.10
2018-12-25T01:29:55.983Z,4.10
2018-12-25T01:30:41.923Z,4.10
2018-12-25T01:31:27.991Z,4.10
2018-12-25T01:32:13.822Z,4.10
2018-12-25T01:32:59.778Z,4.10
2018-12-25T01:33:46.032Z,4.20
2018-12-25T01:34:31.932Z,4.20
2018-12-25T01:35:17.895Z,4.20
2018-12-25T01:36:03.885Z,4.20
2018-12-25T01:36:50.219Z,4.20
2018-12-25T01:37:37.723Z,4.20
2018-12-25T01:38:23.972Z,4.20
2018-12-25T01:39:09.912Z,4.20
2018-12-25T01:39:55.893Z,4.20
2018-12-25T01:40:41.800Z,4.20
2018-12-25T01:41:27.777Z,4.20
2018-12-25T01:42:13.704Z,4.20
2018-12-25T01:42:59.622Z,4.20
2018-12-25T01:43:45.573Z,4.20
2018-12-25T01:44:31.559Z,4.20
2018-12-25T01:45:17.864Z,4.20
2018-12-25T01:46:03.823Z,4.20
2018-12-25T01:46:49.905Z,4.20
2018-12-25T01:47:35.732Z,4.20
2018-12-25T01:48:21.726Z,4.30
2018-12-25T01:49:07.687Z,4.30
2018-12-25T01:49:53.471Z,4.30
2018-12-25T01:50:39.997Z,4.30
2018-12-25T01:51:26.331Z,4.30
2018-12-25T01:52:12.139Z,4.20
2018-12-25T01:52:58.125Z,4.30
2018-12-25T01:53:43.984Z,4.30
2018-12-25T01:54:32.028Z,4.20
2018-12-25T01:55:18.255Z,4.30
2018-12-25T01:56:05.360Z,4.30
2018-12-25T01:56:51.553Z,4.30
2018-12-25T01:57:37.482Z,4.30
2018-12-25T01:58:23.499Z,4.30
2018-12-25T01:59:09.895Z,4.30
2018-12-25T01:59:56.292Z,4.30
2018-12-25T02:00:42.312Z,4.30
2018-12-25T02:01:28.498Z,4.30
2018-12-25T02:02:15.992Z,4.30
2018-12-25T02:03:03.909Z,4.30
2018-12-25T02:03:50.340Z,4.30
2018-12-25T02:04:36.270Z,4.30
2018-12-25T02:05:22.265Z,4.30
2018-12-25T02:06:08.428Z,4.30
2018-12-25T02:06:55.110Z,4.30
2018-12-25T02:07:42.027Z,4.30
2018-12-25T02:08:29.452Z,4.30
2018-12-25T02:09:16.129Z,4.30
2018-12-25T02:10:02.592Z,4.30
2018-12-25T02:10:48.887Z,4.30
2018-12-25T02:11:35.079Z,4.20
2018-12-25T02:12:22.143Z,4.30
2018-12-25T02:13:08.783Z,4.30
2018-12-25T02:13:54.967Z,4.30
2018-12-25T02:14:41.351Z,4.30
2018-12-25T02:15:27.696Z,4.30
2018-12-25T02:16:14.548Z,4.30
2018-12-25T02:17:00.742Z,4.30
2018-12-25T02:17:46.755Z,4.30
2018-12-25T02:18:33.000Z,4.20
2018-12-25T02:19:19.017Z,4.20
2018-12-25T02:20:05.358Z,4.30
2018-12-25T02:20:51.194Z,4.20
2018-12-25T02:21:38.152Z,4.20
2018-12-25T02:22:24.519Z,4.30
2018-12-25T02:23:10.466Z,4.30
2018-12-25T02:23:56.319Z,4.20
2018-12-25T02:24:42.185Z,4.20
2018-12-25T02:25:28.387Z,4.30
2018-12-25T02:26:14.604Z,4.30
2018-12-25T02:27:00.884Z,4.30
2018-12-25T02:27:46.920Z,4.30
2018-12-25T02:28:33.330Z,4.30
2018-12-25T02:29:19.963Z,4.20
2018-12-25T02:30:06.305Z,4.20
2018-12-25T02:30:54.281Z,4.20
2018-12-25T02:31:40.685Z,4.20
2018-12-25T02:32:27.096Z,4.20
2018-12-25T02:33:13.158Z,4.30
2018-12-25T02:33:59.341Z,4.20
2018-12-25T02:34:45.771Z,4.30
2018-12-25T02:35:31.889Z,4.20
2018-12-25T02:36:18.354Z,4.30
2018-12-25T02:37:04.401Z,4.20
2018-12-25T02:37:50.751Z,4.30
2018-12-25T02:38:36.698Z,4.20
2018-12-25T02:39:22.905Z,4.30
2018-12-25T02:40:08.647Z,4.20
2018-12-25T02:40:54.711Z,4.30
2018-12-25T02:41:41.059Z,4.30
2018-12-25T02:42:27.316Z,4.30
2018-12-25T02:43:13.055Z,4.30
2018-12-25T02:43:59.972Z,4.30
2018-12-25T02:44:46.180Z,4.30
2018-12-25T02:45:32.068Z,4.30
2018-12-25T02:46:18.542Z,4.30
2018-12-25T02:47:04.664Z,4.30
2018-12-25T02:47:50.677Z,4.30
2018-12-25T02:48:36.498Z,4.30
2018-12-25T02:49:22.522Z,4.30
2018-12-25T02:50:08.644Z,4.30
2018-12-25T02:50:55.796Z,4.20
2018-12-25T02:51:43.372Z,4.20
2018-12-25T02:52:29.700Z,4.20
2018-12-25T02:53:15.820Z,4.20
2018-12-25T02:54:02.182Z,4.20
2018-12-25T02:54:49.283Z,4.20
2018-12-25T02:55:35.971Z,4.30
2018-12-25T02:56:23.518Z,4.20
2018-12-25T02:57:10.046Z,4.30
2018-12-25T02:57:56.479Z,4.30
2018-12-25T02:58:42.494Z,4.30
2018-12-25T02:59:28.445Z,4.30
2018-12-25T03:00:14.270Z,4.30
2018-12-25T03:01:00.035Z,4.30
2018-12-25T03:01:45.877Z,4.30
2018-12-25T03:02:32.132Z,4.20
2018-12-25T03:03:18.028Z,4.20
2018-12-25T03:04:03.878Z,4.20
2018-12-25T03:04:49.856Z,4.30
2018-12-25T03:05:36.242Z,4.30
2018-12-25T03:06:22.171Z,4.30
2018-12-25T03:07:09.048Z,4.30
2018-12-25T03:07:54.873Z,4.30
2018-12-25T03:08:40.740Z,4.30
2018-12-25T03:09:27.251Z,4.30
2018-12-25T03:10:13.183Z,4.30
2018-12-25T03:10:59.238Z,4.30
2018-12-25T03:11:45.216Z,4.30
2018-12-25T03:12:31.322Z,4.30
2018-12-25T03:13:17.345Z,4.20
2018-12-25T03:14:03.286Z,4.30
2018-12-25T03:14:49.587Z,4.30
2018-12-25T03:15:35.896Z,4.30
2018-12-25T03:16:22.406Z,4.30
2018-12-25T03:17:08.476Z,4.30
2018-12-25T03:17:54.770Z,4.30
2018-12-25T03:18:40.981Z,4.30
2018-12-25T03:19:26.888Z,4.30
2018-12-25T03:20:13.771Z,4.30
2018-12-25T03:21:00.098Z,4.30
2018-12-25T03:21:46.646Z,4.30
2018-12-25T03:22:32.462Z,4.30
2018-12-25T03:23:18.299Z,4.30
2018-12-25T03:24:04.199Z,4.30
2018-12-25T03:24:50.079Z,4.30
2018-12-25T03:25:36.473Z,4.20
2018-12-25T03:26:22.515Z,4.30
2018-12-25T03:27:08.476Z,4.20
2018-12-25T03:27:54.516Z,4.20
2018-12-25T03:28:40.621Z,4.20
2018-12-25T03:29:26.716Z,4.20
2018-12-25T03:30:12.718Z,4.20
2018-12-25T03:30:58.542Z,4.20
2018-12-25T03:31:44.535Z,4.20
2018-12-25T03:32:30.882Z,4.20
2018-12-25T03:33:16.700Z,4.20
2018-12-25T03:34:02.565Z,4.20
2018-12-25T03:34:48.432Z,4.20
2018-12-25T03:35:34.188Z,4.20
2018-12-25T03:36:20.078Z,4.20
2018-12-25T03:37:06.983Z,4.20
2018-12-25T03:37:53.342Z,4.20
2018-12-25T03:38:40.459Z,4.10
2018-12-25T03:39:26.781Z,4.10
2018-12-25T03:40:13.231Z,4.10
2018-12-25T03:40:59.380Z,4.20
2018-12-25T03:41:46.532Z,4.20
2018-12-25T03:42:33.037Z,4.20
2018-12-25T03:43:19.376Z,4.10
2018-12-25T03:44:05.188Z,4.10
2018-12-25T03:44:51.678Z,4.10
2018-12-25T03:45:37.797Z,4.10
2018-12-25T03:46:25.407Z,4.10
2018-12-25T03:47:11.764Z,4.10
2018-12-25T03:47:58.148Z,4.10
2018-12-25T03:48:45.356Z,4.10
2018-12-25T03:49:32.887Z,4.10
2018-12-25T03:50:18.817Z,4.10
2018-12-25T03:51:04.959Z,4.10
2018-12-25T03:51:51.030Z,4.10
2018-12-25T03:52:37.115Z,4.10
2018-12-25T03:53:23.629Z,4.10
2018-12-25T03:54:10.151Z,4.10
2018-12-25T03:54:56.643Z,4.10
2018-12-25T03:55:42.591Z,4.10
2018-12-25T03:56:29.024Z,4.20
2018-12-25T03:57:15.401Z,4.20
2018-12-25T03:58:01.266Z,4.20
2018-12-25T03:58:47.086Z,4.20
2018-12-25T03:59:32.943Z,4.20
2018-12-25T04:00:19.399Z,4.20
2018-12-25T04:01:05.335Z,4.10
2018-12-25T04:01:51.731Z,4.20
2018-12-25T04:02:37.703Z,4.20
2018-12-25T04:03:23.584Z,4.20
2018-12-25T04:04:09.766Z,4.20
2018-12-25T04:04:55.830Z,4.20
2018-12-25T04:05:41.764Z,4.20
2018-12-25T04:06:27.753Z,4.20
2018-12-25T04:07:15.554Z,4.20
2018-12-25T04:08:03.401Z,4.20
2018-12-25T04:08:49.720Z,4.20
2018-12-25T04:09:36.284Z,4.20
2018-12-25T04:10:23.519Z,4.20
2018-12-25T04:11:09.864Z,4.20
2018-12-25T04:11:55.847Z,4.20
2018-12-25T04:12:41.979Z,4.20
2018-12-25T04:13:28.046Z,4.20
2018-12-25T04:14:14.186Z,4.20
2018-12-25T04:15:00.731Z,4.20
2018-12-25T04:15:46.812Z,4.20
2018-12-25T04:16:32.764Z,4.20
2018-12-25T04:17:19.707Z,4.20
2018-12-25T04:18:06.046Z,4.20
2018-12-25T04:18:52.286Z,4.20
2018-12-25T04:19:38.608Z,4.20
2018-12-25T04:20:24.442Z,4.20
2018-12-25T04:21:10.566Z,4.20
2018-12-25T04:21:57.136Z,4.20
2018-12-25T04:22:43.348Z,4.20
2018-12-25T04:23:29.659Z,4.20
2018-12-25T04:24:15.641Z,4.20
2018-12-25T04:25:01.670Z,4.20
2018-12-25T04:25:47.602Z,4.20
2018-12-25T04:26:34.072Z,4.20
2018-12-25T04:27:19.976Z,4.20
2018-12-25T04:28:05.872Z,4.20
2018-12-25T04:28:52.479Z,4.20
2018-12-25T04:29:38.534Z,4.20
2018-12-25T04:30:26.190Z,4.20
2018-12-25T04:31:12.914Z,4.20
2018-12-25T04:31:59.053Z,4.20
2018-12-25T04:32:46.359Z,4.20
2018-12-25T04:33:32.802Z,4.20
2018-12-25T04:34:19.948Z,4.20
2018-12-25T04:35:06.245Z,4.20
2018-12-25T04:35:52.387Z,4.10
2018-12-25T04:36:38.812Z,4.10
2018-12-25T04:37:25.140Z,4.10
2018-12-25T04:38:11.671Z,4.10
2018-12-25T04:38:57.698Z,4.20
2018-12-25T04:39:43.755Z,4.20
2018-12-25T04:40:30.131Z,4.20
2018-12-25T04:41:16.656Z,4.20
2018-12-25T04:42:02.945Z,4.20
2018-12-25T04:42:48.832Z,4.20
2018-12-25T04:43:35.190Z,4.20
2018-12-25T04:44:21.473Z,4.20
2018-12-25T04:45:07.775Z,4.20
2018-12-25T04:45:54.205Z,4.20
2018-12-25T04:46:40.113Z,4.20
2018-12-25T04:47:27.103Z,4.20
2018-12-25T04:48:13.490Z,4.20
2018-12-25T04:48:59.473Z,4.20
2018-12-25T04:49:45.411Z,4.20
2018-12-25T04:50:31.494Z,4.20
2018-12-25T04:51:17.708Z,4.20
2018-12-25T04:52:05.803Z,4.20
2018-12-25T04:52:52.119Z,4.20
2018-12-25T04:53:38.045Z,4.20
2018-12-25T04:54:24.088Z,4.20
2018-12-25T04:55:10.187Z,4.20
2018-12-25T04:55:57.774Z,4.20
2018-12-25T04:56:43.750Z,4.20
2018-12-25T04:57:29.740Z,4.20
2018-12-25T04:58:15.891Z,4.30
2018-12-25T04:59:02.116Z,4.20
2018-12-25T04:59:48.168Z,4.20
2018-12-25T05:00:34.563Z,4.20
2018-12-25T05:01:20.691Z,4.20
2018-12-25T05:02:08.259Z,4.20
2018-12-25T05:02:54.741Z,4.20
2018-12-25T05:03:40.564Z,4.20
2018-12-25T05:04:27.052Z,4.20
2018-12-25T05:05:15.912Z,4.20
2018-12-25T05:06:01.931Z,4.20
2018-12-25T05:06:48.303Z,4.20
2018-12-25T05:07:34.526Z,4.20
2018-12-25T05:08:20.344Z,4.20
2018-12-25T05:09:06.747Z,4.20
2018-12-25T05:09:52.539Z,4.20
2018-12-25T05:10:38.431Z,4.30
2018-12-25T05:11:24.351Z,4.30
2018-12-25T05:12:10.277Z,4.20
2018-12-25T05:12:56.064Z,4.30
2018-12-25T05:13:41.913Z,4.30
2018-12-25T05:14:27.743Z,4.30
2018-12-25T05:15:14.173Z,4.30
2018-12-25T05:16:00.043Z,4.30
2018-12-25T05:16:46.167Z,4.30
2018-12-25T05:17:32.287Z,4.30
2018-12-25T05:18:18.339Z,4.30
2018-12-25T05:19:06.267Z,4.30
2018-12-25T05:19:52.558Z,4.20
2018-12-25T05:20:38.579Z,4.30
2018-12-25T05:21:25.738Z,4.20
2018-12-25T05:22:12.216Z,4.20
2018-12-25T05:22:58.674Z,4.20
2018-12-25T05:23:48.370Z,4.20
2018-12-25T05:24:34.732Z,4.20
2018-12-25T05:25:20.839Z,4.20
2018-12-25T05:26:06.961Z,4.20
2018-12-25T05:26:53.144Z,4.20
2018-12-25T05:27:39.003Z,4.20
2018-12-25T05:28:24.777Z,4.20
2018-12-25T05:29:11.219Z,4.20
2018-12-25T05:29:57.066Z,4.20
2018-12-25T05:30:44.006Z,4.20
2018-12-25T05:31:30.388Z,4.20
2018-12-25T05:32:16.168Z,4.20
2018-12-25T05:33:02.144Z,4.20
2018-12-25T05:33:48.100Z,4.20
2018-12-25T05:34:34.324Z,4.20
2018-12-25T05:35:20.395Z,4.20
2018-12-25T05:36:06.595Z,4.20
2018-12-25T05:36:54.698Z,4.20
2018-12-25T05:37:40.815Z,4.20
2018-12-25T05:38:26.879Z,4.20
2018-12-25T05:39:14.563Z,4.20
2018-12-25T05:40:00.915Z,4.20
2018-12-25T05:40:47.162Z,4.20
2018-12-25T05:41:33.224Z,4.20
2018-12-25T05:42:19.103Z,4.30
2018-12-25T05:43:05.103Z,4.30
2018-12-25T05:43:51.135Z,4.30
2018-12-25T05:44:37.231Z,4.30
2018-12-25T05:45:23.302Z,4.30
2018-12-25T05:46:10.446Z,4.30
2018-12-25T05:46:57.003Z,4.20
2018-12-25T05:47:44.098Z,4.20
2018-12-25T05:48:30.492Z,4.20
2018-12-25T05:49:16.613Z,4.20
2018-12-25T05:50:02.859Z,4.20
2018-12-25T05:50:49.017Z,4.20
2018-12-25T05:51:34.874Z,4.30
2018-12-25T05:52:20.741Z,4.30
2018-12-25T05:53:06.844Z,4.30
2018-12-25T05:53:54.205Z,4.30
2018-12-25T05:54:40.576Z,4.30
2018-12-25T05:55:26.799Z,4.30
2018-12-25T05:56:14.316Z,4.30
2018-12-25T05:57:00.516Z,4.30
2018-12-25T05:57:46.318Z,4.30
2018-12-25T05:58:32.342Z,4.30
2018-12-25T05:59:18.624Z,4.30
2018-12-25T06:00:05.684Z,4.30
2018-12-25T06:00:51.966Z,4.30
2018-12-25T06:01:38.542Z,4.30
2018-12-25T06:02:24.528Z,4.30
2018-12-25T06:03:10.403Z,4.30
2018-12-25T06:03:56.676Z,4.30
2018-12-25T06:04:42.481Z,4.30
2018-12-25T06:05:28.886Z,4.30
2018-12-25T06:06:16.049Z,4.30
2018-12-25T06:07:02.643Z,4.30
2018-12-25T06:07:50.356Z,4.30
2018-12-25T06:08:36.672Z,4.40
2018-12-25T06:09:22.628Z,4.30
2018-12-25T06:10:08.652Z,4.40
2018-12-25T06:10:56.682Z,4.30
2018-12-25T06:11:42.749Z,4.40
2018-12-25T06:12:29.099Z,4.30
2018-12-25T06:13:15.615Z,4.40
2018-12-25T06:14:01.757Z,4.40
2018-12-25T06:14:47.812Z,4.40
2018-12-25T06:15:33.825Z,4.40
2018-12-25T06:16:19.627Z,4.40
2018-12-25T06:17:05.514Z,4.40
2018-12-25T06:17:51.834Z,4.40
2018-12-25T06:18:37.652Z,4.40
2018-12-25T06:19:23.507Z,4.40
2018-12-25T06:20:09.231Z,4.40
2018-12-25T06:20:55.459Z,4.40
2018-12-25T06:21:41.482Z,4.40
2018-12-25T06:22:27.483Z,4.40
2018-12-25T06:23:13.410Z,4.40
2018-12-25T06:23:59.255Z,4.40
2018-12-25T06:24:45.131Z,4.40
2018-12-25T06:25:31.029Z,4.40
2018-12-25T06:26:17.152Z,4.40
2018-12-25T06:27:04.659Z,4.40
2018-12-25T06:27:51.189Z,4.40
2018-12-25T06:28:37.619Z,4.40
2018-12-25T06:29:24.315Z,4.40
2018-12-25T06:30:10.443Z,4.40
2018-12-25T06:30:56.964Z,4.40
2018-12-25T06:31:43.435Z,4.40
2018-12-25T06:32:29.531Z,4.40
2018-12-25T06:33:15.405Z,4.40
2018-12-25T06:34:01.319Z,4.50
2018-12-25T06:34:47.166Z,4.40
2018-12-25T06:35:33.034Z,4.40
2018-12-25T06:36:18.818Z,4.50
2018-12-25T06:37:04.638Z,4.50
2018-12-25T06:37:50.558Z,4.50
2018-12-25T06:38:37.631Z,4.40
2018-12-25T06:39:24.188Z,4.40
2018-12-25T06:40:10.416Z,4.50
2018-12-25T06:40:56.396Z,4.50
2018-12-25T06:41:42.386Z,4.40
2018-12-25T06:42:28.798Z,4.50
2018-12-25T06:43:14.687Z,4.40
2018-12-25T06:44:00.816Z,4.40
2018-12-25T06:44:47.173Z,4.40
2018-12-25T06:45:34.753Z,4.50
2018-12-25T06:46:21.155Z,4.50
2018-12-25T06:47:07.155Z,4.50
2018-12-25T06:47:53.326Z,4.50
2018-12-25T06:48:39.539Z,4.40
2018-12-25T06:49:25.487Z,4.40
2018-12-25T06:50:11.543Z,4.40
2018-12-25T06:51:03.680Z,4.40
2018-12-25T06:51:45.735Z,4.40
2018-12-25T06:52:32.691Z,4.40
2018-12-25T06:53:20.166Z,4.40
2018-12-25T06:54:06.099Z,4.40
2018-12-25T06:54:52.480Z,4.40
2018-12-25T06:55:38.305Z,4.40
2018-12-25T06:56:24.264Z,4.40
2018-12-25T06:57:10.667Z,4.40
2018-12-25T06:57:56.652Z,4.40
2018-12-25T06:58:42.884Z,4.50
2018-12-25T06:59:30.393Z,4.40
2018-12-25T07:00:16.787Z,4.40
2018-12-25T07:01:06.923Z,4.40
2018-12-25T07:01:52.981Z,4.40
2018-12-25T07:02:38.883Z,4.40
2018-12-25T07:03:24.864Z,4.40
2018-12-25T07:04:10.803Z,4.40
2018-12-25T07:04:56.610Z,4.40
2018-12-25T07:05:43.053Z,4.40
2018-12-25T07:06:29.015Z,4.40
2018-12-25T07:07:15.346Z,4.40
2018-12-25T07:08:01.129Z,4.30
2018-12-25T07:08:47.188Z,4.40
2018-12-25T07:09:35.255Z,4.40
2018-12-25T07:10:21.555Z,4.40
2018-12-25T07:11:07.494Z,4.30
2018-12-25T07:11:53.877Z,4.30
2018-12-25T07:12:39.811Z,4.30
2018-12-25T07:13:25.908Z,4.30
2018-12-25T07:14:11.975Z,4.30
2018-12-25T07:14:59.066Z,4.30
2018-12-25T07:15:45.703Z,4.40
2018-12-25T07:16:31.853Z,4.30
2018-12-25T07:17:17.863Z,4.40
2018-12-25T07:18:04.459Z,4.40
2018-12-25T07:18:50.441Z,4.30
2018-12-25T07:19:36.429Z,4.40
2018-12-25T07:20:22.827Z,4.40
2018-12-25T07:21:12.248Z,4.40
2018-12-25T07:21:56.464Z,4.40
2018-12-25T07:22:42.320Z,4.40
2018-12-25T07:23:29.282Z,4.40
2018-12-25T07:24:15.379Z,4.30
2018-12-25T07:25:01.359Z,4.40
2018-12-25T07:25:47.259Z,4.30
2018-12-25T07:26:34.206Z,4.40
2018-12-25T07:27:20.439Z,4.40
2018-12-25T07:28:06.347Z,4.40
2018-12-25T07:28:52.355Z,4.40
2018-12-25T07:29:39.079Z,4.40
2018-12-25T07:30:25.215Z,4.40
2018-12-25T07:31:11.052Z,4.40
2018-12-25T07:31:57.184Z,4.40
2018-12-25T07:32:44.760Z,4.30
2018-12-25T07:33:31.260Z,4.30
2018-12-25T07:34:17.676Z,4.40
2018-12-25T07:35:03.631Z,4.40
2018-12-25T07:35:49.610Z,4.40
2018-12-25T07:36:37.334Z,4.40
2018-12-25T07:37:24.544Z,4.40
2018-12-25T07:38:10.909Z,4.40
2018-12-25T07:38:56.842Z,4.40
2018-12-25T07:39:42.935Z,4.40
2018-12-25T07:40:30.227Z,4.40
2018-12-25T07:41:17.733Z,4.40
2018-12-25T07:42:04.190Z,4.40
2018-12-25T07:42:50.489Z,4.40
2018-12-25T07:43:37.968Z,4.40
2018-12-25T07:44:24.423Z,4.40
2018-12-25T07:45:10.708Z,4.40
2018-12-25T07:45:56.855Z,4.40
2018-12-25T07:46:42.807Z,4.40
2018-12-25T07:47:28.632Z,4.40
2018-12-25T07:48:14.610Z,4.40
2018-12-25T07:49:00.416Z,4.40
2018-12-25T07:49:46.164Z,4.40
2018-12-25T07:50:33.227Z,4.40
2018-12-25T07:51:20.790Z,4.40
2018-12-25T07:52:08.575Z,4.40
2018-12-25T07:52:54.791Z,4.40
2018-12-25T07:53:41.674Z,4.40
2018-12-25T07:54:28.064Z,4.40
2018-12-25T07:55:14.150Z,4.40
2018-12-25T07:56:00.535Z,4.40
2018-12-25T07:56:46.983Z,4.40
2018-12-25T07:57:32.978Z,4.40
2018-12-25T07:58:19.395Z,4.40
2018-12-25T07:59:05.607Z,4.40
2018-12-25T07:59:52.623Z,4.40
2018-12-25T08:00:38.916Z,4.40
2018-12-25T08:01:24.859Z,4.50
2018-12-25T08:02:10.622Z,4.50
2018-12-25T08:02:56.731Z,4.50
2018-12-25T08:03:42.940Z,4.40
2018-12-25T08:04:30.247Z,4.40
2018-12-25T08:05:17.246Z,4.40
2018-12-25T08:06:04.849Z,4.40
2018-12-25T08:06:51.207Z,4.40
2018-12-25T08:07:38.411Z,4.50
2018-12-25T08:08:24.643Z,4.50
2018-12-25T08:09:10.730Z,4.50
2018-12-25T08:09:56.673Z,4.40
2018-12-25T08:10:44.107Z,4.40
2018-12-25T08:11:31.561Z,4.40
2018-12-25T08:12:17.776Z,4.40
2018-12-25T08:13:05.114Z,4.50
2018-12-25T08:13:51.414Z,4.50
2018-12-25T08:14:37.380Z,4.50
2018-12-25T08:15:23.394Z,4.50
2018-12-25T08:16:09.947Z,4.50
2018-12-25T08:16:57.419Z,4.50
2018-12-25T08:17:43.936Z,4.50
2018-12-25T08:18:32.223Z,4.50
2018-12-25T08:19:18.636Z,4.50
2018-12-25T08:20:04.966Z,4.50
2018-12-25T08:20:51.459Z,4.50
2018-12-25T08:21:38.986Z,4.50
2018-12-25T08:22:25.511Z,4.50
2018-12-25T08:23:11.723Z,4.60
2018-12-25T08:23:58.370Z,4.60
2018-12-25T08:24:45.621Z,4.50
2018-12-25T08:25:33.052Z,4.50
2018-12-25T08:26:19.659Z,4.50
2018-12-25T08:27:06.197Z,4.50
2018-12-25T08:27:52.522Z,4.60
2018-12-25T08:28:39.574Z,4.50
2018-12-25T08:29:26.058Z,4.50
2018-12-25T08:30:12.615Z,4.50
2018-12-25T08:30:58.458Z,4.50
2018-12-25T08:31:44.419Z,4.60
2018-12-25T08:32:31.800Z,4.50
2018-12-25T08:33:19.370Z,4.60
2018-12-25T08:34:05.850Z,4.50
2018-12-25T08:34:51.793Z,4.50
2018-12-25T08:35:38.742Z,4.60
2018-12-25T08:36:25.083Z,4.60
2018-12-25T08:37:12.036Z,4.60
2018-12-25T08:37:59.935Z,4.60
2018-12-25T08:38:46.486Z,4.60
2018-12-25T08:39:32.908Z,4.60
2018-12-25T08:40:19.005Z,4.60
2018-12-25T08:41:04.892Z,4.60
2018-12-25T08:41:51.504Z,4.60
2018-12-25T08:42:37.608Z,4.60
2018-12-25T08:43:23.323Z,4.60
2018-12-25T08:44:10.287Z,4.70
2018-12-25T08:44:56.714Z,4.60
2018-12-25T08:45:42.608Z,4.70
2018-12-25T08:46:30.027Z,4.70
2018-12-25T08:47:16.266Z,4.70
2018-12-25T08:48:02.367Z,4.70
2018-12-25T08:48:49.391Z,4.80
2018-12-25T08:49:35.692Z,4.70
2018-12-25T08:50:41.048Z,4.70
2018-12-25T08:51:28.567Z,4.80
2018-12-25T08:52:14.776Z,4.80
2018-12-25T08:53:00.719Z,4.80
2018-12-25T08:53:47.158Z,4.80
2018-12-25T08:54:34.621Z,4.80
2018-12-25T08:55:21.417Z,4.80
2018-12-25T08:56:09.960Z,4.80
2018-12-25T08:56:56.336Z,4.80
2018-12-25T08:57:43.590Z,4.80
2018-12-25T08:58:29.927Z,4.80
2018-12-25T08:59:16.262Z,4.80
2018-12-25T09:00:04.003Z,4.90
2018-12-25T09:00:50.242Z,4.90
2018-12-25T09:01:36.415Z,4.90
2018-12-25T09:02:22.911Z,4.90
2018-12-25T09:03:09.442Z,4.90
2018-12-25T09:03:55.672Z,4.90
2018-12-25T09:04:41.728Z,4.90
2018-12-25T09:05:27.826Z,5.00
2018-12-25T09:06:13.811Z,4.90
2018-12-25T09:07:02.795Z,5.00
2018-12-25T09:07:49.382Z,5.00
2018-12-25T09:08:35.352Z,5.00
2018-12-25T09:09:23.354Z,5.00
2018-12-25T09:10:11.207Z,5.10
2018-12-25T09:10:57.618Z,5.10
2018-12-25T09:11:44.255Z,5.10
2018-12-25T09:12:31.163Z,5.10
2018-12-25T09:13:17.260Z,5.10
2018-12-25T09:14:03.950Z,5.10
2018-12-25T09:14:50.495Z,5.10
2018-12-25T09:15:36.662Z,5.10
2018-12-25T09:16:23.038Z,5.10
2018-12-25T09:17:08.947Z,5.10
2018-12-25T09:17:55.347Z,5.20
2018-12-25T09:18:41.682Z,5.20
2018-12-25T09:19:27.943Z,5.20
2018-12-25T09:20:13.858Z,5.20
2018-12-25T09:21:00.406Z,5.20
2018-12-25T09:21:46.642Z,5.20
2018-12-25T09:22:32.831Z,5.20
2018-12-25T09:23:19.119Z,5.10
2018-12-25T09:24:05.387Z,5.10
2018-12-25T09:24:51.666Z,5.10
2018-12-25T09:25:37.968Z,5.10
2018-12-25T09:26:24.054Z,5.10
2018-12-25T09:27:10.514Z,5.20
2018-12-25T09:27:56.446Z,5.20
2018-12-25T09:28:42.432Z,5.20
2018-12-25T09:29:28.339Z,5.20
2018-12-25T09:30:14.349Z,5.30
2018-12-25T09:31:00.575Z,5.20
2018-12-25T09:31:47.023Z,5.20
2018-12-25T09:32:33.149Z,5.30
2018-12-25T09:33:19.385Z,5.30
2018-12-25T09:35:16.743Z,5.30
2018-12-25T09:36:03.139Z,5.30
2018-12-25T09:36:49.723Z,5.30
2018-12-25T09:37:35.726Z,5.30
2018-12-25T09:38:21.399Z,5.30
2018-12-25T09:39:07.308Z,5.30
2018-12-25T09:39:53.267Z,5.30
2018-12-25T09:40:39.139Z,5.30
2018-12-25T09:41:25.139Z,5.20
2018-12-25T09:42:11.403Z,5.20
2018-12-25T09:42:57.323Z,5.30
2018-12-25T09:43:43.295Z,5.30
2018-12-25T09:44:29.276Z,5.30
2018-12-25T09:45:16.574Z,5.30
2018-12-25T09:46:02.970Z,5.30
2018-12-25T09:46:49.132Z,5.40
2018-12-25T09:47:35.191Z,5.40
2018-12-25T09:48:21.391Z,5.40
2018-12-25T09:49:08.504Z,5.40
2018-12-25T09:49:55.097Z,5.40
2018-12-25T09:50:41.679Z,5.40
2018-12-25T09:51:27.659Z,5.40
2018-12-25T09:52:13.679Z,5.40
2018-12-25T09:52:59.715Z,5.50
2018-12-25T09:53:45.747Z,5.50
2018-12-25T09:54:31.949Z,5.50
2018-12-25T09:55:18.266Z,5.60
2018-12-25T09:56:04.053Z,5.60
2018-12-25T09:56:50.360Z,5.50
2018-12-25T09:57:37.247Z,5.60
2018-12-25T09:58:23.607Z,5.50
2018-12-25T09:59:09.955Z,5.50
2018-12-25T09:59:55.876Z,5.40
2018-12-25T10:00:41.987Z,5.50
2018-12-25T10:01:29.158Z,5.50
2018-12-25T10:02:15.315Z,5.60
2018-12-25T10:03:01.290Z,5.60
2018-12-25T10:03:47.606Z,5.60
2018-12-25T10:04:35.166Z,5.70
2018-12-25T10:05:21.439Z,5.60
2018-12-25T10:06:07.418Z,5.60
2018-12-25T10:06:55.217Z,5.60
2018-12-25T10:07:41.582Z,5.60
2018-12-25T10:08:28.091Z,5.50
2018-12-25T10:09:14.017Z,5.50
2018-12-25T10:10:00.091Z,5.50
2018-12-25T10:10:46.502Z,5.50
2018-12-25T10:11:32.549Z,5.50
2018-12-25T10:12:18.615Z,5.60
2018-12-25T10:13:04.542Z,5.60
2018-12-25T10:13:51.191Z,5.60
2018-12-25T10:14:37.236Z,5.70
2018-12-25T10:15:23.921Z,5.70
2018-12-25T10:16:11.134Z,5.70
2018-12-25T10:16:57.527Z,5.70
2018-12-25T10:17:43.427Z,5.70
2018-12-25T10:18:29.359Z,5.70